Kansas City, MO

8:12 AM CDT on October 20, 2014 (GMT -0500)
Kansas City International | Change Station
CLOSE
Current Station
Airport
Location: Kansas City International,
Elevation: 1024 ft
Nearby Weather Stations

Elev 1024 ft 39.30 °N, 94.73 °W | Updated 19 minutes ago

Clear
Clear
51 °F
Feels Like 51 °F
N
4
Wind Variable Wind from West

Today
High -- | Low -- °F
--% Chance of Precip.
Yesterday
High -- | Low -- °F
Precip. -- in
7:33 AM 6:32 PM
Waning Crescent, 11% visible
Pressure 30.02 in
Visibility 8.0 miles
Clouds Few 17000 ft
Dew Point 49 °F
Humidity 92%
Rainfall 0.00 in
Snow Depth Not available.
UV 0 out of 12
Pollen 3.20 out of 12
Ozone Good
PM2.5 Moderate
Flu Activity No Activity
METAR KMCI 201253Z 28003KT 8SM FEW170 11/09 A3002 RMK AO2 SLP164 T01060094

More Conditions Fewer Conditions

Pressure 30.02 in
Visibility 8.0 miles
Clouds Few 17000 ft
Dew Point 49 °F
Humidity 92%
Rainfall 0.00 in
Snow Depth Not available.
UV 0 out of 12
Pollen 3.20 out of 12
Ozone Good
PM2.5 Moderate
Flu Activity No Activity
METAR KMCI 201253Z 28003KT 8SM FEW170 11/09 A3002 RMK AO2 SLP164 T01060094

More Conditions Fewer Conditions

10-Day Weather Forecast

Almanac

Astronomy

Oct. 20, 2014 Rise Set
Actual Time 7:33 AM CDT 6:32 PM CDT
Civil Twilight 7:06 AM CDT 6:59 PM CDT
Nautical Twilight 6:34 AM CDT 7:30 PM CDT
Astronomical Twilight 6:03 AM CDT 8:01 PM CDT
Moon 4:23 AM CDT 4:54 PM CDT
Length of Visible Light 11h 53m
Length of Day
10h 59m
Waning Crescent, 11% of the Moon is Illuminated
Today
Waning Crescent
Oct 23
New
Oct 30
First Quarter
Nov 6
Full
Nov 14
Last Quarter

Today's Extremes

State Highs State Lows

Community

WunderPhotos

Upload Photos

1,763,372 photos uploaded!

Nearby

Air Quality

  Air Quality AQ Index Pollutant
Yesterday Moderate
PM2.5
Yesterday Good
OZONE
Current Moderate
PM2.5
Current Good
OZONE
Monday Good
OZONE

Snow Depth

Station Depth Elevation
No new snow has been reported.

Earthquake Activity

City Distance Mag. Time & Date
No recent earthquake activity has been reported nearby.
Minimum magnitude displayed is 2.5.

Coastal Water Temperatures

Place Temperature
No Stations Reporting

Nearby Weather Stations